Time;durP1;ratioP1;P1;durP2;ratioP2;P2;SDS_P1;SDS_P2;PMS_P1;PMS_P2;Temp;Humidity;BMP_temperature;BMP_pressure;BME280_temperature;BME280_humidity;BME280_pressure;Samples;Min_cycle;Max_cycle;Signal;HPM_P1;HPM_P2
2023/04/21 00:02:52;;;;;;;42.40;29.42;;;7.10;99.90;;;;;;7302058;32;20209;-55
2023/04/21 00:06:54;;;;;;;38.17;29.67;;;7.00;99.90;;;;;;7298335;32;20211;-55
2023/04/21 00:10:56;;;;;;;38.72;28.65;;;7.10;99.90;;;;;;7303627;32;20203;-56
2023/04/21 00:14:58;;;;;;;37.15;27.00;;;7.10;99.90;;;;;;7298862;32;20373;-56
2023/04/21 00:19:01;;;;;;;38.10;28.05;;;7.10;99.90;;;;;;7296630;32;20553;-56
2023/04/21 00:23:02;;;;;;;39.13;28.45;;;7.10;99.90;;;;;;7295967;32;20606;-55
2023/04/21 00:27:04;;;;;;;38.28;28.58;;;7.10;99.90;;;;;;7301733;32;20271;-55
2023/04/21 00:31:06;;;;;;;40.03;29.85;;;7.10;99.90;;;;;;7295730;32;20123;-57
2023/04/21 00:35:09;;;;;;;45.20;30.88;;;7.00;99.90;;;;;;7296793;32;20242;-55
2023/04/21 00:39:10;;;;;;;40.55;30.00;;;7.00;99.90;;;;;;7313099;32;20119;-55
2023/04/21 00:43:12;;;;;;;41.70;29.55;;;7.00;99.90;;;;;;7308404;32;20182;-55
2023/04/21 00:47:14;;;;;;;44.38;30.58;;;7.00;99.90;;;;;;7306470;32;20104;-55
2023/04/21 00:51:16;;;;;;;42.78;30.23;;;6.90;99.90;;;;;;7306827;32;20285;-55
2023/04/21 00:55:17;;;;;;;50.03;33.47;;;7.00;99.90;;;;;;7305987;32;20253;-55
2023/04/21 00:59:19;;;;;;;48.22;32.30;;;6.90;99.90;;;;;;7304275;32;20145;-55
2023/04/21 01:03:21;;;;;;;50.75;32.67;;;7.00;99.90;;;;;;7304653;32;20130;-55
2023/04/21 01:07:24;;;;;;;57.20;34.42;;;6.90;99.90;;;;;;7302393;32;20306;-55
2023/04/21 01:11:27;;;;;;;51.05;33.80;;;6.90;99.90;;;;;;7302656;32;20146;-55
2023/04/21 01:15:30;;;;;;;51.13;34.15;;;7.00;99.90;;;;;;7304610;32;20209;-56
2023/04/21 01:19:34;;;;;;;48.17;32.38;;;7.00;99.90;;;;;;7299756;32;20234;-55
2023/04/21 01:23:36;;;;;;;48.03;32.60;;;6.90;99.90;;;;;;7307495;32;20203;-55
2023/04/21 01:27:38;;;;;;;49.88;33.15;;;7.00;99.90;;;;;;7307577;32;20234;-56
2023/04/21 01:31:39;;;;;;;51.45;34.33;;;7.00;99.90;;;;;;7300405;32;20150;-56
2023/04/21 01:35:41;;;;;;;53.72;33.63;;;7.00;99.90;;;;;;7303197;32;20238;-56
2023/04/21 01:39:46;;;;;;;53.22;34.42;;;7.00;99.90;;;;;;7305449;32;20178;-55
2023/04/21 01:43:47;;;;;;;52.25;35.08;;;7.00;99.90;;;;;;7307076;32;20769;-55
2023/04/21 01:47:49;;;;;;;55.10;35.85;;;7.00;99.90;;;;;;7299338;32;20205;-55
2023/04/21 01:51:51;;;;;;;54.40;33.55;;;7.00;99.90;;;;;;7303757;32;20242;-56
2023/04/21 01:55:53;;;;;;;53.65;34.50;;;7.10;99.90;;;;;;7307876;32;20133;-55
2023/04/21 01:59:55;;;;;;;51.08;33.35;;;7.10;99.90;;;;;;7305453;32;20835;-56
2023/04/21 02:03:56;;;;;;;53.83;33.03;;;7.10;99.90;;;;;;7303516;32;20148;-55
2023/04/21 02:07:59;;;;;;;47.45;31.73;;;7.10;99.90;;;;;;7303719;32;20514;-55
2023/04/21 02:12:01;;;;;;;52.28;32.97;;;7.10;99.90;;;;;;7303427;32;20221;-55
2023/04/21 02:16:03;;;;;;;48.90;32.53;;;7.10;99.90;;;;;;7303778;32;20112;-54
2023/04/21 02:20:14;;;;;;;54.78;34.72;;;7.10;99.90;;;;;;7305871;32;20329;-55
2023/04/21 02:24:16;;;;;;;50.10;32.80;;;7.10;99.90;;;;;;7301677;32;20225;-55
2023/04/21 02:28:18;;;;;;;50.25;32.78;;;7.20;99.90;;;;;;7294084;32;20144;-55
2023/04/21 02:32:20;;;;;;;51.28;32.65;;;7.20;99.90;;;;;;7305030;32;20177;-55
2023/04/21 02:36:27;;;;;;;56.55;32.58;;;7.20;99.90;;;;;;7299939;32;20537;-55
2023/04/21 02:40:28;;;;;;;51.28;33.10;;;7.20;99.90;;;;;;7296708;32;20133;-55
2023/04/21 02:44:30;;;;;;;51.10;33.53;;;7.20;99.90;;;;;;7301169;32;20163;-55
2023/04/21 02:48:32;;;;;;;50.28;32.35;;;7.20;99.90;;;;;;7307628;32;20505;-55
2023/04/21 02:52:37;;;;;;;51.53;33.13;;;7.20;99.90;;;;;;7305230;32;20154;-55
2023/04/21 02:56:38;;;;;;;54.42;33.88;;;7.20;99.90;;;;;;7309859;32;20135;-55
2023/04/21 03:00:40;;;;;;;53.05;33.70;;;7.10;99.90;;;;;;7304165;32;20174;-55
2023/04/21 03:04:42;;;;;;;49.00;32.72;;;7.00;99.90;;;;;;7306376;32;20148;-55
2023/04/21 03:08:44;;;;;;;51.22;33.00;;;7.00;99.90;;;;;;7299041;32;20127;-54
2023/04/21 03:12:46;;;;;;;49.70;31.02;;;7.00;99.90;;;;;;7302417;32;20104;-56
2023/04/21 03:16:48;;;;;;;51.17;32.50;;;7.00;99.90;;;;;;7300092;32;20219;-56
2023/04/21 03:20:49;;;;;;;49.08;31.15;;;7.00;99.90;;;;;;7302314;32;20184;-54
2023/04/21 03:24:51;;;;;;;52.10;30.73;;;6.90;99.90;;;;;;7305726;32;20167;-55
2023/04/21 03:28:53;;;;;;;47.53;29.77;;;6.90;99.90;;;;;;7305303;32;20157;-55
2023/04/21 03:32:54;;;;;;;49.85;30.35;;;6.90;99.90;;;;;;7300819;32;20235;-55
2023/04/21 03:36:56;;;;;;;49.03;30.25;;;6.90;99.90;;;;;;7303098;32;20209;-56
2023/04/21 03:40:58;;;;;;;53.35;32.30;;;6.90;99.90;;;;;;7305521;32;20332;-55
2023/04/21 03:45:08;;;;;;;54.15;31.75;;;6.90;99.90;;;;;;7305557;32;20242;-56
2023/04/21 03:49:10;;;;;;;55.38;31.48;;;6.90;99.90;;;;;;7297814;32;20387;-55
2023/04/21 03:53:11;;;;;;;51.75;31.60;;;6.90;99.90;;;;;;7306339;32;20170;-55
2023/04/21 03:57:14;;;;;;;52.35;32.40;;;6.80;99.90;;;;;;7316460;32;20277;-55
2023/04/21 04:01:16;;;;;;;51.03;30.02;;;6.80;99.90;;;;;;7313294;32;21126;-56
2023/04/21 04:05:18;;;;;;;42.65;26.45;;;6.80;99.90;;;;;;7306136;32;20187;-55
2023/04/21 04:09:19;;;;;;;40.97;27.17;;;6.90;99.90;;;;;;7310621;32;20227;-55
2023/04/21 04:13:23;;;;;;;40.53;26.92;;;6.80;99.90;;;;;;7309232;32;20556;-55
2023/04/21 04:17:25;;;;;;;42.17;26.60;;;6.80;99.90;;;;;;7306262;32;20123;-56
2023/04/21 04:21:27;;;;;;;41.75;27.75;;;6.80;99.90;;;;;;7306509;32;20261;-55
2023/04/21 04:25:29;;;;;;;36.90;25.88;;;6.70;99.90;;;;;;7299552;32;20095;-55
2023/04/21 04:29:31;;;;;;;45.60;29.95;;;6.60;99.90;;;;;;7300997;32;20199;-55
2023/04/21 04:33:32;;;;;;;54.33;31.40;;;6.60;99.90;;;;;;7308511;32;20161;-55
2023/04/21 04:37:38;;;;;;;46.85;29.83;;;6.60;99.90;;;;;;7307666;32;20151;-55
2023/04/21 04:41:40;;;;;;;50.42;31.05;;;6.60;99.90;;;;;;7301597;32;20146;-55
2023/04/21 04:45:42;;;;;;;47.28;30.37;;;6.60;99.90;;;;;;7302979;32;20116;-55
2023/04/21 04:49:44;;;;;;;44.47;29.23;;;6.70;99.90;;;;;;7300081;32;20780;-57
2023/04/21 04:53:46;;;;;;;40.20;26.62;;;6.60;99.90;;;;;;7305126;32;20504;-57
2023/04/21 04:57:48;;;;;;;45.25;28.50;;;6.60;99.90;;;;;;7306986;32;20119;-57
2023/04/21 05:01:50;;;;;;;44.10;28.33;;;6.60;99.90;;;;;;7301568;32;20116;-57
2023/04/21 05:05:53;;;;;;;39.83;25.75;;;6.60;99.90;;;;;;7310764;32;20138;-57
2023/04/21 05:09:54;;;;;;;39.17;25.17;;;6.50;99.90;;;;;;7307031;32;20115;-57
2023/04/21 05:13:56;;;;;;;34.60;23.67;;;6.60;99.90;;;;;;7298079;32;20242;-57
2023/04/21 05:17:58;;;;;;;33.13;23.27;;;6.50;99.90;;;;;;7306209;32;20112;-57
2023/04/21 05:22:00;;;;;;;35.08;23.77;;;6.40;99.90;;;;;;7301066;32;20194;-57
2023/04/21 05:26:01;;;;;;;35.75;23.08;;;6.50;99.90;;;;;;7305130;32;20149;-57
2023/04/21 05:30:06;;;;;;;35.47;23.67;;;6.60;99.90;;;;;;7302068;32;20119;-57
2023/04/21 05:34:08;;;;;;;35.33;23.35;;;6.70;99.90;;;;;;7304721;32;20166;-57
2023/04/21 05:38:09;;;;;;;34.90;23.92;;;6.80;99.90;;;;;;7303432;32;20196;-56
2023/04/21 05:42:11;;;;;;;34.05;23.40;;;6.90;99.90;;;;;;7304138;32;20170;-57
2023/04/21 05:46:13;;;;;;;35.30;24.05;;;7.10;99.90;;;;;;7302063;32;20112;-56
2023/04/21 05:50:15;;;;;;;36.63;24.17;;;7.30;99.90;;;;;;7301919;32;20796;-56
2023/04/21 05:54:17;;;;;;;37.78;25.55;;;7.40;99.90;;;;;;7302150;32;20774;-56
2023/04/21 05:58:19;;;;;;;36.65;24.30;;;7.40;99.90;;;;;;7301631;32;20757;-57
2023/04/21 06:02:21;;;;;;;33.83;24.50;;;7.50;99.90;;;;;;7306021;32;20564;-58
2023/04/21 06:06:25;;;;;;;33.13;23.50;;;7.60;99.90;;;;;;7300435;32;20628;-57
2023/04/21 06:10:27;;;;;;;33.72;23.77;;;7.50;99.90;;;;;;7295447;32;20769;-57
2023/04/21 06:14:28;;;;;;;34.83;23.52;;;7.60;99.90;;;;;;7306241;32;20265;-56
2023/04/21 06:18:30;;;;;;;37.40;25.35;;;7.70;99.90;;;;;;7309283;32;20169;-56
2023/04/21 06:22:32;;;;;;;34.92;22.92;;;7.80;99.90;;;;;;7298342;32;20149;-56
2023/04/21 06:26:34;;;;;;;36.97;25.23;;;8.00;99.90;;;;;;7298384;32;22119;-57
2023/04/21 06:30:36;;;;;;;37.75;25.67;;;8.20;99.90;;;;;;7307173;32;20126;-57
2023/04/21 06:34:38;;;;;;;35.45;25.62;;;8.30;99.90;;;;;;7303450;32;20109;-57
2023/04/21 06:38:42;;;;;;;39.72;26.12;;;8.40;99.90;;;;;;7304420;32;20194;-56
2023/04/21 06:42:43;;;;;;;36.90;25.23;;;8.50;99.90;;;;;;7302113;32;20133;-56
2023/04/21 06:46:46;;;;;;;34.03;24.37;;;8.50;99.90;;;;;;7307573;32;20959;-57
2023/04/21 06:50:48;;;;;;;33.15;24.58;;;8.70;99.90;;;;;;7299833;32;20224;-56
2023/04/21 06:54:49;;;;;;;34.03;24.35;;;8.90;99.90;;;;;;7295969;32;20208;-56
2023/04/21 06:58:51;;;;;;;34.28;24.73;;;9.10;99.90;;;;;;7304619;32;20115;-56
2023/04/21 07:02:53;;;;;;;35.30;23.77;;;9.30;99.90;;;;;;7304799;32;20561;-56
2023/04/21 07:06:55;;;;;;;32.53;23.05;;;9.40;99.90;;;;;;7305156;32;20108;-57
2023/04/21 07:10:57;;;;;;;32.35;23.60;;;9.40;99.90;;;;;;7303886;32;20212;-57
2023/04/21 07:14:58;;;;;;;28.48;22.20;;;9.60;99.90;;;;;;7304399;32;20103;-56
2023/04/21 07:19:00;;;;;;;30.23;23.02;;;9.70;99.90;;;;;;7300697;32;20108;-57
2023/04/21 07:23:02;;;;;;;31.23;22.67;;;9.80;99.90;;;;;;7300930;32;20517;-57
2023/04/21 07:27:04;;;;;;;28.52;21.25;;;10.10;99.90;;;;;;7301534;32;20258;-57
2023/04/21 07:31:06;;;;;;;28.08;21.90;;;10.30;99.90;;;;;;7301100;32;20196;-57
2023/04/21 07:35:08;;;;;;;24.92;20.80;;;10.50;99.90;;;;;;7304730;32;20385;-57
2023/04/21 07:39:10;;;;;;;23.95;19.08;;;10.60;99.90;;;;;;7311960;32;20211;-57
2023/04/21 07:43:12;;;;;;;24.95;20.10;;;10.80;99.90;;;;;;7303597;32;20400;-57
2023/04/21 07:47:14;;;;;;;24.92;19.33;;;10.90;99.90;;;;;;7301249;32;21185;-57
2023/04/21 07:51:16;;;;;;;23.80;18.25;;;11.10;99.90;;;;;;7304984;32;20202;-57
2023/04/21 07:55:18;;;;;;;23.02;18.27;;;11.20;99.90;;;;;;7303905;32;20284;-56
2023/04/21 07:59:20;;;;;;;22.30;16.92;;;11.30;99.90;;;;;;7299802;32;20156;-57
2023/04/21 08:03:22;;;;;;;22.30;17.67;;;11.00;99.90;;;;;;7308206;32;20107;-57
2023/04/21 08:07:25;;;;;;;21.95;18.30;;;11.30;99.90;;;;;;7303577;32;20659;-61
2023/04/21 08:11:27;;;;;;;23.75;18.83;;;11.30;99.90;;;;;;7300980;32;20183;-58
2023/04/21 08:15:29;;;;;;;24.85;17.87;;;11.50;99.90;;;;;;7305018;32;20195;-57
2023/04/21 08:19:31;;;;;;;22.35;17.87;;;11.60;99.90;;;;;;7307456;32;20245;-57
2023/04/21 08:23:32;;;;;;;22.17;17.92;;;11.50;99.90;;;;;;7302845;32;20166;-56
2023/04/21 08:27:37;;;;;;;22.98;17.75;;;11.60;99.90;;;;;;7302328;32;20116;-57
2023/04/21 08:31:39;;;;;;;21.42;16.33;;;11.50;99.90;;;;;;7302560;32;20140;-56
2023/04/21 08:35:41;;;;;;;21.67;17.95;;;11.50;99.90;;;;;;7299671;32;20111;-57
2023/04/21 08:40:03;;;;;;;23.58;19.15;;;12.00;99.90;;;;;;7304636;32;20444;-57
2023/04/21 08:44:05;;;;;;;27.58;21.62;;;12.50;99.90;;;;;;7310644;32;20182;-57
2023/04/21 08:48:11;;;;;;;25.58;21.02;;;12.80;99.90;;;;;;7303404;32;20187;-57
2023/04/21 08:52:13;;;;;;;25.98;20.25;;;12.60;99.90;;;;;;7306756;32;20605;-57
2023/04/21 08:56:15;;;;;;;25.60;20.30;;;12.50;99.90;;;;;;7299957;32;20130;-57
2023/04/21 09:00:17;;;;;;;22.87;19.75;;;12.60;99.90;;;;;;7305794;32;20127;-58
2023/04/21 09:04:18;;;;;;;25.62;20.52;;;12.80;99.90;;;;;;7309144;32;20989;-57
2023/04/21 09:08:20;;;;;;;26.37;19.40;;;12.70;99.90;;;;;;7300128;32;20578;-57
2023/04/21 09:12:23;;;;;;;28.45;20.73;;;12.50;99.90;;;;;;7298786;32;20112;-57
2023/04/21 09:16:29;;;;;;;24.35;20.37;;;12.50;99.90;;;;;;7305313;32;20139;-57
2023/04/21 09:20:31;;;;;;;29.70;20.20;;;12.80;99.90;;;;;;7305526;32;20803;-57
2023/04/21 09:24:33;;;;;;;23.77;19.02;;;12.70;99.90;;;;;;7302492;32;20221;-57
2023/04/21 09:28:35;;;;;;;23.73;19.25;;;12.70;99.90;;;;;;7307457;32;20251;-56
2023/04/21 09:32:38;;;;;;;21.50;16.83;;;12.60;99.90;;;;;;7306028;32;20132;-57
2023/04/21 09:36:40;;;;;;;22.67;18.73;;;12.80;99.90;;;;;;7309250;32;20221;-57
2023/04/21 09:40:42;;;;;;;22.35;17.85;;;12.70;99.90;;;;;;7300171;32;20249;-57
2023/04/21 09:44:43;;;;;;;22.77;15.52;;;12.90;99.90;;;;;;7307189;32;20746;-57
2023/04/21 09:49:05;;;;;;;23.73;18.17;;;13.30;99.90;;;;;;7298245;32;20130;-57
2023/04/21 09:53:12;;;;;;;23.77;18.00;;;13.30;99.90;;;;;;7303322;32;20176;-57
2023/04/21 09:57:24;;;;;;;21.87;17.35;;;13.40;99.90;;;;;;7308914;32;20614;-56
2023/04/21 10:01:28;;;;;;;23.75;17.35;;;13.60;99.90;;;;;;7301735;32;20293;-57
2023/04/21 10:05:30;;;;;;;21.25;17.02;;;13.70;99.90;;;;;;7300306;32;20192;-57
2023/04/21 10:09:44;;;;;;;26.50;19.60;;;14.00;99.90;;;;;;7298986;32;20115;-56
2023/04/21 10:13:46;;;;;;;26.40;19.77;;;13.10;99.90;;;;;;7304065;32;20185;-57
2023/04/21 10:17:49;;;;;;;25.98;19.77;;;13.00;99.90;;;;;;7314004;32;20865;-57
2023/04/21 10:21:54;;;;;;;25.92;19.42;;;13.20;99.90;;;;;;7322213;32;20587;-57
2023/04/21 10:26:39;;;;;;;25.85;20.02;;;13.30;99.90;;;;;;7304903;32;20219;-56
2023/04/21 10:30:41;;;;;;;26.75;21.62;;;14.30;99.90;;;;;;7295801;32;20103;-57
2023/04/21 10:34:43;;;;;;;27.70;20.75;;;14.00;99.90;;;;;;7306401;32;20263;-57
2023/04/21 10:38:57;;;;;;;26.42;21.00;;;14.60;99.90;;;;;;7304004;32;20112;-57
2023/04/21 10:43:02;;;;;;;24.92;20.17;;;15.20;99.90;;;;;;7304337;32;20927;-57
2023/04/21 10:47:06;;;;;;;23.55;19.87;;;15.50;99.90;;;;;;7307425;32;20180;-57
2023/04/21 10:51:09;;;;;;;28.33;22.77;;;15.20;99.90;;;;;;7305904;32;20208;-56
2023/04/21 10:55:14;;;;;;;25.05;20.17;;;14.90;99.90;;;;;;7306709;32;20478;-56
2023/04/21 10:59:17;;;;;;;27.58;19.83;;;14.90;99.90;;;;;;7312387;32;20683;-57
2023/04/21 11:03:19;;;;;;;25.58;19.70;;;14.90;99.90;;;;;;7302583;32;20269;-57
2023/04/21 11:07:25;;;;;;;25.98;21.50;;;15.20;99.90;;;;;;7316804;32;20250;-57
2023/04/21 11:11:26;;;;;;;30.75;22.35;;;16.40;99.90;;;;;;7311532;32;20130;-57
2023/04/21 11:15:29;;;;;;;24.80;19.25;;;15.70;99.90;;;;;;7316889;32;20611;-57
2023/04/21 11:19:31;;;;;;;24.95;19.20;;;15.90;99.90;;;;;;7302413;32;20190;-58
2023/04/21 11:23:33;;;;;;;24.55;20.48;;;15.60;99.90;;;;;;7308102;32;20151;-57
2023/04/21 11:27:34;;;;;;;28.50;22.75;;;15.20;99.90;;;;;;7304194;32;20116;-57
2023/04/21 11:31:39;;;;;;;27.10;21.10;;;14.80;99.90;;;;;;7306347;32;20112;-57
2023/04/21 11:35:42;;;;;;;24.45;19.17;;;14.70;99.90;;;;;;7306914;32;20153;-57
2023/04/21 11:39:43;;;;;;;24.98;19.48;;;15.40;99.90;;;;;;7312483;32;20537;-57
2023/04/21 11:43:46;;;;;;;23.80;19.55;;;15.50;99.90;;;;;;7304494;32;20207;-57
2023/04/21 11:47:47;;;;;;;23.92;17.40;;;16.20;99.90;;;;;;7307602;32;20135;-57
2023/04/21 11:51:49;;;;;;;23.95;17.27;;;17.30;99.90;;;;;;7304062;32;20292;-57
2023/04/21 11:55:52;;;;;;;20.45;17.85;;;17.50;99.90;;;;;;7300721;32;20161;-61
2023/04/21 11:59:58;;;;;;;19.23;16.33;;;18.20;99.90;;;;;;7308809;32;20238;-62
2023/04/21 12:04:02;;;;;;;22.13;16.60;;;18.60;99.90;;;;;;7297395;32;20305;-61
2023/04/21 12:08:05;;;;;;;18.65;15.02;;;17.30;99.90;;;;;;7310967;32;20122;-61
2023/04/21 12:12:09;;;;;;;21.27;18.30;;;18.60;99.90;;;;;;7306915;32;20127;-62
2023/04/21 12:16:11;;;;;;;20.10;17.65;;;18.50;99.90;;;;;;7300013;32;20457;-57
2023/04/21 12:20:18;;;;;;;22.77;18.40;;;18.50;99.90;;;;;;7298383;32;20099;-58
2023/04/21 12:24:19;;;;;;;19.50;16.98;;;18.50;99.90;;;;;;7298914;32;20226;-58
2023/04/21 12:28:21;;;;;;;19.42;16.10;;;19.30;99.90;;;;;;7304221;32;20104;-58
2023/04/21 12:32:23;;;;;;;18.95;15.18;;;19.10;99.90;;;;;;7306193;32;20126;-58
2023/04/21 12:36:26;;;;;;;18.52;14.90;;;19.70;99.90;;;;;;7305709;32;20138;-58
2023/04/21 12:40:28;;;;;;;22.48;16.00;;;19.80;99.90;;;;;;7300625;32;20674;-57
2023/04/21 12:44:30;;;;;;;18.80;16.00;;;18.70;99.90;;;;;;7300372;32;20373;-57
2023/04/21 12:48:33;;;;;;;19.70;16.12;;;18.50;99.90;;;;;;7299167;32;20130;-57
2023/04/21 12:52:34;;;;;;;17.62;14.73;;;17.80;99.90;;;;;;7300301;32;20142;-57
2023/04/21 12:56:38;;;;;;;17.70;13.60;;;19.00;99.90;;;;;;7300788;32;20132;-58
2023/04/21 13:00:40;;;;;;;13.75;12.30;;;19.30;99.90;;;;;;7300480;32;20573;-57
2023/04/21 13:04:42;;;;;;;14.95;11.68;;;17.80;99.90;;;;;;7300241;32;20112;-57
2023/04/21 13:08:44;;;;;;;13.82;12.25;;;17.80;99.90;;;;;;7301332;32;20263;-57
2023/04/21 13:12:45;;;;;;;14.68;12.27;;;16.60;99.90;;;;;;7302731;32;20108;-57
2023/04/21 13:16:47;;;;;;;14.48;11.27;;;16.90;99.90;;;;;;7302823;32;20143;-58
2023/04/21 13:20:49;;;;;;;13.30;10.50;;;17.00;99.90;;;;;;7306800;32;20131;-57
2023/04/21 13:24:51;;;;;;;13.02;9.68;;;17.20;99.90;;;;;;7300968;32;20185;-58
2023/04/21 13:28:53;;;;;;;11.48;9.40;;;18.70;99.90;;;;;;7299816;32;20128;-57
2023/04/21 13:32:54;;;;;;;8.60;7.72;;;19.30;99.90;;;;;;7303377;32;20226;-58
2023/04/21 13:36:56;;;;;;;9.85;7.78;;;19.60;99.90;;;;;;7300739;32;20240;-57
2023/04/21 13:40:58;;;;;;;8.75;7.60;;;19.80;99.90;;;;;;7308639;32;20131;-58
2023/04/21 13:45:03;;;;;;;7.87;6.65;;;18.60;99.90;;;;;;7303067;32;20127;-57
2023/04/21 13:49:05;;;;;;;9.23;7.65;;;18.50;99.90;;;;;;7300543;32;20139;-58
2023/04/21 13:53:08;;;;;;;6.78;6.07;;;19.90;99.90;;;;;;7299314;32;20155;-57
2023/04/21 13:57:09;;;;;;;6.90;6.20;;;20.10;99.90;;;;;;7302396;32;20231;-58
2023/04/21 14:01:13;;;;;;;6.93;6.00;;;20.40;99.90;;;;;;7304285;32;20551;-57
2023/04/21 14:05:15;;;;;;;8.70;6.50;;;19.80;99.90;;;;;;7301580;32;20661;-57
2023/04/21 14:09:17;;;;;;;7.15;5.60;;;20.90;99.90;;;;;;7302904;32;20194;-58
2023/04/21 14:13:19;;;;;;;10.45;5.22;;;22.40;99.80;;;;;;7299955;32;20197;-58
2023/04/21 14:17:36;;;;;;;6.05;5.40;;;23.30;97.80;;;;;;7295963;32;20190;-58
2023/04/21 14:21:38;;;;;;;5.80;5.15;;;24.10;91.40;;;;;;7296275;32;20123;-57
2023/04/21 14:25:40;;;;;;;8.32;5.93;;;24.40;90.30;;;;;;7302499;32;20414;-58
2023/04/21 14:29:42;;;;;;;5.75;5.15;;;23.80;88.30;;;;;;7307804;32;20187;-63
2023/04/21 14:33:43;;;;;;;5.80;4.90;;;24.70;88.70;;;;;;7303343;32;20495;-63
2023/04/21 14:37:45;;;;;;;5.47;4.70;;;23.20;84.80;;;;;;7291801;32;20103;-66
2023/04/21 14:41:47;;;;;;;5.87;4.12;;;23.50;90.00;;;;;;7305004;32;20625;-64
2023/04/21 14:45:49;;;;;;;4.22;3.75;;;24.10;87.00;;;;;;7304430;32;20199;-64
2023/04/21 14:49:53;;;;;;;5.15;4.28;;;24.60;84.10;;;;;;7308709;32;20196;-64
2023/04/21 14:53:56;;;;;;;4.87;3.90;;;24.10;82.30;;;;;;7304604;32;20188;-64
2023/04/21 14:57:58;;;;;;;5.62;4.53;;;23.10;83.90;;;;;;7304302;32;20515;-64
2023/04/21 15:01:59;;;;;;;4.97;4.35;;;22.30;86.00;;;;;;7297320;32;20203;-64
2023/04/21 15:06:02;;;;;;;5.20;4.62;;;21.20;89.50;;;;;;7301885;32;20140;-58
2023/04/21 15:10:05;;;;;;;5.93;4.20;;;20.30;92.40;;;;;;7305657;32;20119;-58
2023/04/21 15:14:07;;;;;;;5.50;4.82;;;19.80;93.40;;;;;;7310096;32;20248;-58
2023/04/21 15:18:09;;;;;;;6.22;4.80;;;19.50;95.20;;;;;;7308739;32;20670;-58
2023/04/21 15:22:11;;;;;;;6.15;4.47;;;19.40;96.40;;;;;;7303490;32;20319;-58
2023/04/21 15:26:13;;;;;;;6.65;4.70;;;19.10;97.00;;;;;;7307131;32;20143;-66
2023/04/21 15:30:15;;;;;;;9.25;5.20;;;18.70;99.50;;;;;;7310303;32;20145;-66
2023/04/21 15:34:16;;;;;;;6.40;4.40;;;18.50;98.90;;;;;;7302489;32;20759;-58
2023/04/21 15:38:19;;;;;;;6.00;4.32;;;18.40;99.90;;;;;;7299300;32;20274;-57
2023/04/21 15:42:22;;;;;;;6.80;4.82;;;18.40;99.90;;;;;;7295923;32;20103;-58
2023/04/21 15:46:24;;;;;;;6.47;5.07;;;18.20;99.90;;;;;;7308937;32;20230;-57
2023/04/21 15:50:26;;;;;;;6.93;5.18;;;18.10;99.90;;;;;;7318287;32;20111;-58
2023/04/21 15:54:27;;;;;;;6.57;5.12;;;17.90;99.90;;;;;;7311391;32;20120;-57
2023/04/21 15:58:29;;;;;;;6.05;5.03;;;18.00;99.90;;;;;;7314765;32;20135;-58
2023/04/21 16:02:31;;;;;;;6.12;4.32;;;17.90;99.90;;;;;;7312262;32;20325;-58
2023/04/21 16:06:34;;;;;;;5.45;4.43;;;17.80;99.90;;;;;;7311256;32;20839;-57
2023/04/21 16:10:36;;;;;;;8.43;4.55;;;17.90;99.90;;;;;;7316193;32;20130;-59
2023/04/21 16:14:38;;;;;;;8.30;4.28;;;18.10;99.90;;;;;;7310893;32;20137;-58
2023/04/21 16:18:57;;;;;;;6.22;4.45;;;17.90;99.90;;;;;;7310434;32;20135;-58
2023/04/21 16:22:59;;;;;;;6.75;4.47;;;17.70;99.90;;;;;;7304832;32;20136;-57
2023/04/21 16:27:01;;;;;;;5.43;4.50;;;17.60;99.90;;;;;;7313456;32;20577;-58
2023/04/21 16:31:03;;;;;;;5.75;4.82;;;17.80;99.90;;;;;;7309228;32;20149;-58
2023/04/21 16:35:08;;;;;;;6.45;4.65;;;17.60;99.90;;;;;;7314257;32;20108;-58
2023/04/21 16:39:10;;;;;;;5.60;4.30;;;17.40;99.90;;;;;;7306916;32;20207;-58
2023/04/21 16:43:12;;;;;;;5.78;4.32;;;17.30;99.90;;;;;;7314170;32;20260;-58
2023/04/21 16:47:14;;;;;;;6.55;4.87;;;17.30;99.90;;;;;;7304224;32;20551;-58
2023/04/21 16:51:16;;;;;;;5.40;3.72;;;17.10;99.90;;;;;;7310735;32;20130;-57
2023/04/21 16:55:18;;;;;;;4.37;3.65;;;17.10;99.90;;;;;;7310404;32;20127;-58
2023/04/21 16:59:20;;;;;;;4.30;3.37;;;17.10;99.90;;;;;;7310639;32;20176;-58
2023/04/21 17:03:21;;;;;;;5.12;2.83;;;17.00;99.90;;;;;;7305162;32;20157;-57
2023/04/21 17:07:24;;;;;;;5.18;3.62;;;17.00;99.90;;;;;;7302456;32;20566;-56
2023/04/21 17:11:27;;;;;;;6.20;4.70;;;16.90;99.90;;;;;;7301813;32;20228;-56
2023/04/21 17:15:29;;;;;;;4.55;3.90;;;16.70;99.90;;;;;;7299367;32;20142;-56
2023/04/21 17:19:31;;;;;;;7.65;4.00;;;16.60;99.90;;;;;;7303831;32;20810;-56
2023/04/21 17:23:33;;;;;;;5.12;3.95;;;16.40;99.90;;;;;;7305092;32;20457;-56
2023/04/21 17:27:35;;;;;;;6.95;3.58;;;16.30;99.90;;;;;;7301376;32;20216;-56
2023/04/21 17:31:37;;;;;;;5.18;3.70;;;16.20;99.90;;;;;;7306000;32;20222;-56
2023/04/21 17:35:39;;;;;;;6.50;3.50;;;16.10;99.90;;;;;;7304560;32;20131;-56
2023/04/21 17:39:53;;;;;;;2.28;1.75;;;16.10;99.90;;;;;;7309230;32;20237;-56
2023/04/21 17:43:54;;;;;;;2.20;1.52;;;16.00;99.90;;;;;;7300162;32;20132;-57
2023/04/21 17:47:56;;;;;;;2.25;1.50;;;15.70;99.90;;;;;;7302021;32;20123;-56
2023/04/21 17:51:58;;;;;;;2.83;1.60;;;15.40;99.90;;;;;;7299164;32;20434;-57
2023/04/21 17:56:00;;;;;;;3.25;1.87;;;15.20;99.90;;;;;;7306417;32;20107;-57
2023/04/21 18:00:06;;;;;;;3.17;1.70;;;14.90;99.90;;;;;;7293550;32;20135;-57
2023/04/21 18:04:07;;;;;;;2.55;1.52;;;14.70;99.90;;;;;;7300881;32;20108;-56
2023/04/21 18:08:09;;;;;;;3.20;1.60;;;14.50;99.90;;;;;;7299936;32;20895;-57
2023/04/21 18:12:11;;;;;;;3.58;1.30;;;14.30;99.90;;;;;;7299176;32;20138;-57
2023/04/21 18:16:13;;;;;;;3.03;1.60;;;14.10;99.90;;;;;;7296167;32;20108;-57
2023/04/21 18:20:15;;;;;;;9.40;6.93;;;13.70;99.90;;;;;;7292800;32;20135;-56
2023/04/21 18:24:16;;;;;;;7.25;3.22;;;13.50;99.90;;;;;;7297238;32;22828;-56
2023/04/21 18:28:18;;;;;;;2.35;1.60;;;13.30;99.90;;;;;;7300998;32;20205;-57
2023/04/21 18:32:20;;;;;;;2.00;1.40;;;13.00;99.90;;;;;;7301702;32;20173;-56
2023/04/21 18:36:22;;;;;;;2.12;1.48;;;12.80;99.90;;;;;;7301720;32;20137;-55
2023/04/21 18:40:24;;;;;;;3.67;1.60;;;12.60;99.90;;;;;;7302106;32;20181;-56
2023/04/21 18:44:25;;;;;;;2.25;1.75;;;12.50;99.90;;;;;;7304949;32;20116;-57
2023/04/21 18:48:27;;;;;;;3.40;1.85;;;12.30;99.90;;;;;;7295067;32;20163;-55
2023/04/21 18:52:29;;;;;;;2.83;1.75;;;12.10;99.90;;;;;;7305422;32;20213;-55
2023/04/21 18:56:34;;;;;;;6.28;2.80;;;12.00;99.90;;;;;;7305950;32;20215;-55
2023/04/21 19:00:37;;;;;;;6.47;2.45;;;11.80;99.90;;;;;;7301373;32;20158;-54
2023/04/21 19:04:40;;;;;;;3.47;1.90;;;11.70;99.90;;;;;;7306553;32;20219;-54
2023/04/21 19:08:43;;;;;;;6.47;2.08;;;11.60;99.90;;;;;;7302404;32;20142;-55
2023/04/21 19:12:44;;;;;;;9.63;2.55;;;11.50;99.90;;;;;;7303441;32;20163;-55
2023/04/21 19:16:47;;;;;;;10.95;5.82;;;11.50;99.90;;;;;;7301697;32;20272;-57
2023/04/21 19:20:49;;;;;;;7.55;4.70;;;11.50;99.90;;;;;;7306415;32;20582;-56
2023/04/21 19:24:54;;;;;;;5.70;3.25;;;11.50;99.90;;;;;;7304339;32;20191;-57
2023/04/21 19:28:56;;;;;;;6.10;2.47;;;11.40;99.90;;;;;;7312216;32;20222;-55
2023/04/21 19:32:58;;;;;;;7.03;3.05;;;11.50;99.90;;;;;;7306344;32;20239;-55
2023/04/21 19:37:00;;;;;;;3.12;1.52;;;11.90;99.90;;;;;;7306233;32;20180;-55
2023/04/21 19:41:01;;;;;;;2.92;1.73;;;12.40;99.90;;;;;;7303222;32;20843;-56
2023/04/21 19:45:05;;;;;;;4.82;1.80;;;12.40;99.90;;;;;;7298553;32;20975;-56
2023/04/21 19:49:08;;;;;;;2.85;1.70;;;12.20;99.90;;;;;;7297937;32;20127;-56
2023/04/21 19:53:13;;;;;;;3.05;1.90;;;12.00;99.90;;;;;;7296517;32;20131;-56
2023/04/21 19:57:15;;;;;;;3.90;2.08;;;11.60;99.90;;;;;;7296593;32;20161;-57
2023/04/21 20:01:17;;;;;;;2.45;1.90;;;11.40;99.90;;;;;;7296857;32;20146;-55
2023/04/21 20:05:18;;;;;;;2.50;1.83;;;11.20;99.90;;;;;;7299889;32;20270;-57
2023/04/21 20:09:20;;;;;;;3.22;2.15;;;11.00;99.90;;;;;;7297601;32;20238;-58
2023/04/21 20:13:22;;;;;;;3.85;2.12;;;10.90;99.90;;;;;;7306645;32;20175;-57
2023/04/21 20:17:24;;;;;;;4.82;2.25;;;10.80;99.90;;;;;;7292798;32;20296;-55
2023/04/21 20:21:26;;;;;;;3.55;2.45;;;10.60;99.90;;;;;;7301917;32;20135;-56
2023/04/21 20:25:28;;;;;;;7.07;2.87;;;10.60;99.90;;;;;;7297690;32;20140;-56
2023/04/21 20:29:30;;;;;;;3.72;2.70;;;10.40;99.90;;;;;;7298743;32;20226;-57
2023/04/21 20:33:32;;;;;;;3.92;3.20;;;10.40;99.90;;;;;;7293379;32;20244;-56
2023/04/21 20:37:34;;;;;;;4.78;3.45;;;10.30;99.90;;;;;;7299874;32;20240;-56
2023/04/21 20:41:44;;;;;;;6.72;3.20;;;10.20;99.90;;;;;;7298028;32;20125;-58
2023/04/21 20:45:46;;;;;;;7.93;3.70;;;10.20;99.90;;;;;;7301266;32;20161;-56
2023/04/21 20:49:48;;;;;;;6.12;3.35;;;10.10;99.90;;;;;;7298774;32;20510;-58